Sunflower IVory — JI3634 — position and weather

sailwx.info

Track history (hours):
 
Tides and Currents Weather Stations Pressure Air Temp Water Temp Dewpoint Dewpoint Depression Visibility Wind Speed Wind Dir Waves Ship Positions

Sunflower IVory

Last reported at 2018-May-24 13:16 UTC. Time now 2018-May-25 18:53 UTC.
Position N 34°24' E 134°13'.

Length 153 m; draft 5.7 m.

Type: Ship. MMSI: 431300686.

Date/timePositionNaut miles runAvg speedWind from/ knotsBaromVisibWave heightAir tempDewpointWater temp
2018-May-24 13:16N 34°24' E 134°13'6114.0
2018-May-24 08:58N 34°38' E 135°25'0 0.0
2018-May-24 08:28N 34°38' E 135°25'0 0.0
2018-May-24 07:40N 34°38' E 135°25'0 0.0
2018-May-24 07:28N 34°38' E 135°25'0 0.0
2018-May-24 06:52N 34°38' E 135°25'0 0.0
2018-May-24 06:28N 34°38' E 135°25'0 0.0
2018-May-24 05:58N 34°38' E 135°25'0 0.0
2018-May-24 05:28N 34°38' E 135°25'0 0.0
2018-May-24 04:58N 34°38' E 135°25'0 0.0
2018-May-24 04:28N 34°38' E 135°25'0 0.0
2018-May-24 03:58N 34°38' E 135°25'0 0.0
2018-May-24 03:28N 34°38' E 135°25'0 0.0
2018-May-24 02:58N 34°38' E 135°25'0 0.0
2018-May-24 02:28N 34°38' E 135°25'0 0.0
2018-May-24 01:58N 34°38' E 135°25'0 0.0
2018-May-24 01:28N 34°38' E 135°25'0 0.0
2018-May-24 00:58N 34°38' E 135°25'0 0.0
2018-May-24 00:28N 34°38' E 135°25'0 0.0
2018-May-23 23:58N 34°38' E 135°25'0 0.0
2018-May-23 23:28N 34°38' E 135°25'0 0.0
2018-May-23 22:58N 34°38' E 135°25'0 0.0
2018-May-23 22:10N 34°38' E 135°25'0 0.0
2018-May-23 21:58N 34°38' E 135°25'0 0.0
2018-May-23 21:29N 34°38' E 135°25'612.5
2018-May-23 21:00N 34°37' E 135°17'1019.4
2018-May-23 20:30N 34°35' E 135°06'917.9
2018-May-23 20:00N 34°36' E 134°55'1019.5
2018-May-23 19:30N 34°32' E 134°44'1121.3
2018-May-23 19:00N 34°28' E 134°33'1121.6
2018-May-23 18:30N 34°24' E 134°20'10 0.4
2018-May-22 13:38N 34°26' E 134°08'421.2
2018-May-22 13:27N 34°25' E 134°12'919.8
2018-May-22 13:00N 34°26' E 134°23'1020.3
2018-May-22 12:31N 34°30' E 134°34'1020.0
2018-May-22 12:00N 34°33' E 134°45'1019.7
2018-May-22 11:30N 34°37' E 134°56'918.0
2018-May-22 11:01N 34°36' E 135°07'1020.1
2018-May-22 10:30N 34°37' E 135°19'5 9.1
2018-May-22 10:00N 34°38' E 135°25'0 0.0
2018-May-22 09:29N 34°38' E 135°25'0 0.0
2018-May-22 08:59N 34°38' E 135°25'0 0.0
2018-May-22 08:29N 34°38' E 135°25'0 0.0
2018-May-22 07:59N 34°38' E 135°25'0 0.0
2018-May-22 07:29N 34°38' E 135°25'0 0.0
2018-May-22 06:59N 34°38' E 135°25'0 0.0
2018-May-22 06:29N 34°38' E 135°25'0 0.0
2018-May-22 05:56N 34°38' E 135°25'0 0.0
2018-May-22 05:29N 34°38' E 135°25'0 0.0
2018-May-22 04:59N 34°38' E 135°25'0 0.0
2018-May-22 04:29N 34°38' E 135°25'0 0.0
2018-May-22 03:59N 34°38' E 135°25'0 0.0
2018-May-22 03:29N 34°38' E 135°25'0 0.0
2018-May-22 02:53N 34°38' E 135°25'0 0.0
2018-May-22 02:29N 34°38' E 135°25'0 0.0
2018-May-22 01:59N 34°38' E 135°25'0 0.0
2018-May-22 01:29N 34°38' E 135°25'0 0.0
2018-May-22 00:59N 34°38' E 135°25'0 0.0
2018-May-22 00:29N 34°38' E 135°25'0 0.0
2018-May-21 23:59N 34°38' E 135°25'0 0.0
2018-May-21 23:29N 34°38' E 135°25'0 0.0
2018-May-21 22:59N 34°38' E 135°25'0 0.0
2018-May-21 22:29N 34°38' E 135°25'0 0.0
2018-May-21 21:59N 34°38' E 135°25'1 2.1
2018-May-21 21:30N 34°38' E 135°23'1019.2
2018-May-21 21:00N 34°34' E 135°13'1020.6
2018-May-21 20:30N 34°37' E 135°01'1020.4
2018-May-21 20:00N 34°32' E 134°50'1020.8
2018-May-21 19:30N 34°28' E 134°38'1121.6
2018-May-21 19:00N 34°25' E 134°26'1020.8
2018-May-21 18:30N 34°23' E 134°13'2 0.1
2018-May-20 13:23N 34°25' E 134°12'719.9
2018-May-20 13:00N 34°25' E 134°21'1019.8
2018-May-20 12:30N 34°28' E 134°32'1019.7
2018-May-20 12:00N 34°32' E 134°43'1120.5
2018-May-20 11:30N 34°36' E 134°55'917.6
2018-May-20 11:00N 34°36' E 135°05'1019.6
2018-May-20 10:30N 34°37' E 135°17'611.7
2018-May-20 09:58N 34°38' E 135°25'0 0.0
2018-May-20 09:28N 34°38' E 135°25'0 0.0
2018-May-20 08:58N 34°38' E 135°25'0 0.0
2018-May-20 08:28N 34°38' E 135°25'0 0.0
2018-May-20 07:58N 34°38' E 135°25'0 0.0
2018-May-20 07:28N 34°38' E 135°25'0 0.0
2018-May-20 06:58N 34°38' E 135°25'0 0.0
2018-May-20 06:28N 34°38' E 135°25'0 0.0
2018-May-20 05:58N 34°38' E 135°25'0 0.0
2018-May-20 05:28N 34°38' E 135°25'0 0.0
2018-May-20 04:58N 34°38' E 135°25'0 0.0
2018-May-20 04:28N 34°38' E 135°25'0 0.0
2018-May-20 03:58N 34°38' E 135°25'0 0.0
2018-May-20 03:28N 34°38' E 135°25'0 0.0
2018-May-20 02:52N 34°38' E 135°25'0 0.0
2018-May-20 02:28N 34°38' E 135°25'0 0.0
2018-May-20 01:58N 34°38' E 135°25'0 0.0
2018-May-20 01:28N 34°38' E 135°25'0 0.0
2018-May-20 00:58N 34°38' E 135°25'0 0.0
2018-May-20 00:22N 34°38' E 135°25'0 0.0
2018-May-19 23:58N 34°38' E 135°25'0 0.0
2018-May-19 23:28N 34°38' E 135°25'0 0.0
2018-May-19 22:58N 34°38' E 135°25'0 0.0
2018-May-19 22:28N 34°38' E 135°25'2 5.0
2018-May-19 22:00N 34°37' E 135°22'1019.4
2018-May-19 21:31N 34°35' E 135°11'1019.5
2018-May-19 21:00N 34°37' E 134°59'1019.8
2018-May-19 20:31N 34°32' E 134°49'918.8
2018-May-19 20:01N 34°28' E 134°38'1119.3
2018-May-19 19:28N 34°25' E 134°26'919.2
2018-May-19 19:00N 34°23' E 134°16'1 0.0
2018-May-18 14:05N 34°24' E 134°15'219.5
2018-May-18 14:00N 34°24' E 134°17'918.8
2018-May-18 13:30N 34°25' E 134°28'918.3
2018-May-18 13:01N 34°30' E 134°37'1020.9
2018-May-18 12:31N 34°34' E 134°48'1122.3
2018-May-18 12:00N 34°37' E 135°01'1020.6
2018-May-18 11:30N 34°36' E 135°14'917.7
2018-May-18 11:00N 34°38' E 135°24'0 0.7
2018-May-18 10:28N 34°38' E 135°25'0 0.0
2018-May-18 09:58N 34°38' E 135°25'0 0.0
2018-May-18 09:23N 34°38' E 135°25'0 0.0
2018-May-18 08:59N 34°38' E 135°25'0 0.0
2018-May-18 08:28N 34°38' E 135°25'0 0.0
2018-May-18 07:47N 34°38' E 135°25'0 0.0
2018-May-18 07:26N 34°38' E 135°25'0 0.0
2018-May-18 06:58N 34°38' E 135°25'0 0.0
2018-May-18 06:26N 34°38' E 135°25'0 0.0
2018-May-18 05:59N 34°38' E 135°25'0 0.0
2018-May-18 05:16N 34°38' E 135°25'0 0.0
2018-May-18 04:58N 34°38' E 135°25'0 0.0
2018-May-18 04:29N 34°38' E 135°25'0 0.0
2018-May-18 03:58N 34°38' E 135°25'0 0.0
2018-May-18 03:29N 34°38' E 135°25'0 0.0
2018-May-18 02:58N 34°38' E 135°25'0 0.0
2018-May-18 02:17N 34°38' E 135°25'0 0.0
2018-May-18 01:58N 34°38' E 135°25'0 0.0
2018-May-18 01:28N 34°38' E 135°25'0 0.0
2018-May-18 00:59N 34°38' E 135°25'0 0.0
2018-May-18 00:22N 34°38' E 135°25'0 0.0
2018-May-17 23:59N 34°38' E 135°25'0 0.0
2018-May-17 23:26N 34°38' E 135°25'0 0.0
2018-May-17 22:58N 34°38' E 135°25'0 0.0
2018-May-17 22:29N 34°38' E 135°25'0 0.0
2018-May-17 21:59N 34°38' E 135°25'0 0.0
2018-May-17 21:31N 34°38' E 135°25'4 7.8
2018-May-17 21:00N 34°36' E 135°20'1019.9
2018-May-17 20:31N 34°34' E 135°09'1019.1
2018-May-17 20:01N 34°37' E 134°58'1020.5
2018-May-17 19:31N 34°32' E 134°47'1019.2
2018-May-17 19:00N 34°28' E 134°36'1019.5
2018-May-17 18:30N 34°25' E 134°25'18 0.6
2018-May-16 13:42N 34°27' E 134°03'718.6
2018-May-16 13:19N 34°25' E 134°12'619.1
2018-May-16 13:00N 34°24' E 134°19'918.8
2018-May-16 12:30N 34°28' E 134°30'1019.8
2018-May-16 12:00N 34°31' E 134°41'1122.9
2018-May-16 11:30N 34°36' E 134°54'1020.7
2018-May-16 11:01N 34°36' E 135°06'1120.4
2018-May-16 10:30N 34°37' E 135°19'510.1
2018-May-16 10:01N 34°38' E 135°25'0 0.0
2018-May-16 09:28N 34°38' E 135°25'0 0.0
2018-May-16 08:58N 34°38' E 135°25'0 0.0
2018-May-16 08:28N 34°38' E 135°25'0 0.0
2018-May-16 07:58N 34°38' E 135°25'0 0.0
2018-May-16 07:28N 34°38' E 135°25'0 0.0
2018-May-16 06:58N 34°38' E 135°25'0 0.0
2018-May-16 06:28N 34°38' E 135°25'0 0.0
2018-May-16 05:58N 34°38' E 135°25'0 0.0
2018-May-16 05:28N 34°38' E 135°25'0 0.0
2018-May-16 04:58N 34°38' E 135°25'0 0.0
2018-May-16 04:28N 34°38' E 135°25'0 0.0
2018-May-16 03:58N 34°38' E 135°25'0 0.0
2018-May-16 03:28N 34°38' E 135°25'0 0.0
2018-May-16 02:58N 34°38' E 135°25'0 0.0
2018-May-16 02:22N 34°38' E 135°25'0 0.0
2018-May-16 01:58N 34°38' E 135°25'0 0.0
2018-May-16 01:28N 34°38' E 135°25'0 0.0
2018-May-16 00:58N 34°38' E 135°25'0 0.0
2018-May-16 00:28N 34°38' E 135°25'0 0.0
2018-May-15 23:58N 34°38' E 135°25'0 0.0
2018-May-15 23:28N 34°38' E 135°25'0 0.0
2018-May-15 22:58N 34°38' E 135°25'0 0.0
2018-May-15 22:28N 34°38' E 135°25'0 0.0
2018-May-15 21:58N 34°38' E 135°25'0 0.0
2018-May-15 21:30N 34°38' E 135°25'4 8.1
2018-May-15 21:00N 34°36' E 135°20'1020.1
2018-May-15 20:30N 34°34' E 135°08'918.4
2018-May-15 20:00N 34°36' E 134°57'1019.5
2018-May-15 19:30N 34°32' E 134°47'918.9
2018-May-15 19:00N 34°28' E 134°36'1418.7
2018-May-15 18:17N 34°23' E 134°21'519.2
2018-May-15 18:00N 34°24' E 134°14'6417.3
2018-May-15 14:18N 34°08' E 132°60'717.5
2018-May-15 13:55N 34°08' E 132°51'921.8
2018-May-15 13:30N 34°00' E 132°45'1121.5
2018-May-15 13:00N 33°53' E 132°36'1020.7
2018-May-15 12:30N 33°46' E 132°27'1121.8
2018-May-15 12:00N 33°40' E 132°16'1121.8
2018-May-15 11:31N 33°34' E 132°05'1121.7
2018-May-15 10:59N 33°27' E 131°54'1020.5
2018-May-15 10:30N 33°22' E 131°44'12 0.9
2018-May-14 21:48N 33°18' E 131°30'816.2
2018-May-14 21:20N 33°20' E 131°39'718.1
2018-May-14 20:56N 33°23' E 131°47'818.5
2018-May-14 20:30N 33°28' E 131°54'1018.9
2018-May-14 19:59N 33°33' E 132°05'1019.4
2018-May-14 19:30N 33°38' E 132°14'1020.0
2018-May-14 19:00N 33°44' E 132°24'1020.2
2018-May-14 18:29N 33°51' E 132°33'1020.5
2018-May-14 18:00N 33°57' E 132°42'1221.4
2018-May-14 17:28N 34°07' E 132°51'1917.4
2018-May-14 16:23N 34°11' E 133°12'4116.5
2018-May-14 13:53N 34°25' E 133°60'615.5
2018-May-14 13:29N 34°26' E 134°07'  
Track history (hours):
 
Tides and Currents Weather Stations Pressure Air Temp Water Temp Dewpoint Dewpoint Depression Visibility Wind Speed Wind Dir Waves Ship Positions

Sunflower IVory

Last reported at 2018-May-24 13:16 UTC. Time now 2018-May-25 18:53 UTC.
Position N 34°24' E 134°13'.

Length 153 m; draft 5.7 m.

Type: Ship. MMSI: 431300686.

Date/timePositionNaut miles runAvg speedWind from/ knotsBaromVisibWave heightAir tempDewpointWater temp
2018-May-24 13:16N 34°24' E 134°13'6114.0
2018-May-24 08:58N 34°38' E 135°25'0 0.0
2018-May-24 08:28N 34°38' E 135°25'0 0.0
2018-May-24 07:40N 34°38' E 135°25'0 0.0
2018-May-24 07:28N 34°38' E 135°25'0 0.0
2018-May-24 06:52N 34°38' E 135°25'0 0.0
2018-May-24 06:28N 34°38' E 135°25'0 0.0
2018-May-24 05:58N 34°38' E 135°25'0 0.0
2018-May-24 05:28N 34°38' E 135°25'0 0.0
2018-May-24 04:58N 34°38' E 135°25'0 0.0
2018-May-24 04:28N 34°38' E 135°25'0 0.0
2018-May-24 03:58N 34°38' E 135°25'0 0.0
2018-May-24 03:28N 34°38' E 135°25'0 0.0
2018-May-24 02:58N 34°38' E 135°25'0 0.0
2018-May-24 02:28N 34°38' E 135°25'0 0.0
2018-May-24 01:58N 34°38' E 135°25'0 0.0
2018-May-24 01:28N 34°38' E 135°25'0 0.0
2018-May-24 00:58N 34°38' E 135°25'0 0.0
2018-May-24 00:28N 34°38' E 135°25'0 0.0
2018-May-23 23:58N 34°38' E 135°25'0 0.0
2018-May-23 23:28N 34°38' E 135°25'0 0.0
2018-May-23 22:58N 34°38' E 135°25'0 0.0
2018-May-23 22:10N 34°38' E 135°25'0 0.0
2018-May-23 21:58N 34°38' E 135°25'0 0.0
2018-May-23 21:29N 34°38' E 135°25'612.5
2018-May-23 21:00N 34°37' E 135°17'1019.4
2018-May-23 20:30N 34°35' E 135°06'917.9
2018-May-23 20:00N 34°36' E 134°55'1019.5
2018-May-23 19:30N 34°32' E 134°44'1121.3
2018-May-23 19:00N 34°28' E 134°33'1121.6
2018-May-23 18:30N 34°24' E 134°20'10 0.4
2018-May-22 13:38N 34°26' E 134°08'421.2
2018-May-22 13:27N 34°25' E 134°12'919.8
2018-May-22 13:00N 34°26' E 134°23'1020.3
2018-May-22 12:31N 34°30' E 134°34'1020.0
2018-May-22 12:00N 34°33' E 134°45'1019.7
2018-May-22 11:30N 34°37' E 134°56'918.0
2018-May-22 11:01N 34°36' E 135°07'1020.1
2018-May-22 10:30N 34°37' E 135°19'5 9.1
2018-May-22 10:00N 34°38' E 135°25'0 0.0
2018-May-22 09:29N 34°38' E 135°25'0 0.0
2018-May-22 08:59N 34°38' E 135°25'0 0.0
2018-May-22 08:29N 34°38' E 135°25'0 0.0
2018-May-22 07:59N 34°38' E 135°25'0 0.0
2018-May-22 07:29N 34°38' E 135°25'0 0.0
2018-May-22 06:59N 34°38' E 135°25'0 0.0
2018-May-22 06:29N 34°38' E 135°25'0 0.0
2018-May-22 05:56N 34°38' E 135°25'0 0.0
2018-May-22 05:29N 34°38' E 135°25'0 0.0
2018-May-22 04:59N 34°38' E 135°25'0 0.0
2018-May-22 04:29N 34°38' E 135°25'0 0.0
2018-May-22 03:59N 34°38' E 135°25'0 0.0
2018-May-22 03:29N 34°38' E 135°25'0 0.0
2018-May-22 02:53N 34°38' E 135°25'0 0.0
2018-May-22 02:29N 34°38' E 135°25'0 0.0
2018-May-22 01:59N 34°38' E 135°25'0 0.0
2018-May-22 01:29N 34°38' E 135°25'0 0.0
2018-May-22 00:59N 34°38' E 135°25'0 0.0
2018-May-22 00:29N 34°38' E 135°25'0 0.0
2018-May-21 23:59N 34°38' E 135°25'0 0.0
2018-May-21 23:29N 34°38' E 135°25'0 0.0
2018-May-21 22:59N 34°38' E 135°25'0 0.0
2018-May-21 22:29N 34°38' E 135°25'0 0.0
2018-May-21 21:59N 34°38' E 135°25'1 2.1
2018-May-21 21:30N 34°38' E 135°23'1019.2
2018-May-21 21:00N 34°34' E 135°13'1020.6
2018-May-21 20:30N 34°37' E 135°01'1020.4
2018-May-21 20:00N 34°32' E 134°50'1020.8
2018-May-21 19:30N 34°28' E 134°38'1121.6
2018-May-21 19:00N 34°25' E 134°26'1020.8
2018-May-21 18:30N 34°23' E 134°13'2 0.1
2018-May-20 13:23N 34°25' E 134°12'719.9
2018-May-20 13:00N 34°25' E 134°21'1019.8
2018-May-20 12:30N 34°28' E 134°32'1019.7
2018-May-20 12:00N 34°32' E 134°43'1120.5
2018-May-20 11:30N 34°36' E 134°55'917.6
2018-May-20 11:00N 34°36' E 135°05'1019.6
2018-May-20 10:30N 34°37' E 135°17'611.7
2018-May-20 09:58N 34°38' E 135°25'0 0.0
2018-May-20 09:28N 34°38' E 135°25'0 0.0
2018-May-20 08:58N 34°38' E 135°25'0 0.0
2018-May-20 08:28N 34°38' E 135°25'0 0.0
2018-May-20 07:58N 34°38' E 135°25'0 0.0
2018-May-20 07:28N 34°38' E 135°25'0 0.0
2018-May-20 06:58N 34°38' E 135°25'0 0.0
2018-May-20 06:28N 34°38' E 135°25'0 0.0
2018-May-20 05:58N 34°38' E 135°25'0 0.0
2018-May-20 05:28N 34°38' E 135°25'0 0.0
2018-May-20 04:58N 34°38' E 135°25'0 0.0
2018-May-20 04:28N 34°38' E 135°25'0 0.0
2018-May-20 03:58N 34°38' E 135°25'0 0.0
2018-May-20 03:28N 34°38' E 135°25'0 0.0
2018-May-20 02:52N 34°38' E 135°25'0 0.0
2018-May-20 02:28N 34°38' E 135°25'0 0.0
2018-May-20 01:58N 34°38' E 135°25'0 0.0
2018-May-20 01:28N 34°38' E 135°25'0 0.0
2018-May-20 00:58N 34°38' E 135°25'0 0.0
2018-May-20 00:22N 34°38' E 135°25'0 0.0
2018-May-19 23:58N 34°38' E 135°25'0 0.0
2018-May-19 23:28N 34°38' E 135°25'0 0.0
2018-May-19 22:58N 34°38' E 135°25'0 0.0
2018-May-19 22:28N 34°38' E 135°25'2 5.0
2018-May-19 22:00N 34°37' E 135°22'1019.4
2018-May-19 21:31N 34°35' E 135°11'1019.5
2018-May-19 21:00N 34°37' E 134°59'1019.8
2018-May-19 20:31N 34°32' E 134°49'918.8
2018-May-19 20:01N 34°28' E 134°38'1119.3
2018-May-19 19:28N 34°25' E 134°26'919.2
2018-May-19 19:00N 34°23' E 134°16'1 0.0
2018-May-18 14:05N 34°24' E 134°15'219.5
2018-May-18 14:00N 34°24' E 134°17'918.8
2018-May-18 13:30N 34°25' E 134°28'918.3
2018-May-18 13:01N 34°30' E 134°37'1020.9
2018-May-18 12:31N 34°34' E 134°48'1122.3
2018-May-18 12:00N 34°37' E 135°01'1020.6
2018-May-18 11:30N 34°36' E 135°14'917.7
2018-May-18 11:00N 34°38' E 135°24'0 0.7
2018-May-18 10:28N 34°38' E 135°25'0 0.0
2018-May-18 09:58N 34°38' E 135°25'0 0.0
2018-May-18 09:23N 34°38' E 135°25'0 0.0
2018-May-18 08:59N 34°38' E 135°25'0 0.0
2018-May-18 08:28N 34°38' E 135°25'0 0.0
2018-May-18 07:47N 34°38' E 135°25'0 0.0
2018-May-18 07:26N 34°38' E 135°25'0 0.0
2018-May-18 06:58N 34°38' E 135°25'0 0.0
2018-May-18 06:26N 34°38' E 135°25'0 0.0
2018-May-18 05:59N 34°38' E 135°25'0 0.0
2018-May-18 05:16N 34°38' E 135°25'0 0.0
2018-May-18 04:58N 34°38' E 135°25'0 0.0
2018-May-18 04:29N 34°38' E 135°25'0 0.0
2018-May-18 03:58N 34°38' E 135°25'0 0.0
2018-May-18 03:29N 34°38' E 135°25'0 0.0
2018-May-18 02:58N 34°38' E 135°25'0 0.0
2018-May-18 02:17N 34°38' E 135°25'0 0.0
2018-May-18 01:58N 34°38' E 135°25'0 0.0
2018-May-18 01:28N 34°38' E 135°25'0 0.0
2018-May-18 00:59N 34°38' E 135°25'0 0.0
2018-May-18 00:22N 34°38' E 135°25'0 0.0
2018-May-17 23:59N 34°38' E 135°25'0 0.0
2018-May-17 23:26N 34°38' E 135°25'0 0.0
2018-May-17 22:58N 34°38' E 135°25'0 0.0
2018-May-17 22:29N 34°38' E 135°25'0 0.0
2018-May-17 21:59N 34°38' E 135°25'0 0.0
2018-May-17 21:31N 34°38' E 135°25'4 7.8
2018-May-17 21:00N 34°36' E 135°20'1019.9
2018-May-17 20:31N 34°34' E 135°09'1019.1
2018-May-17 20:01N 34°37' E 134°58'1020.5
2018-May-17 19:31N 34°32' E 134°47'1019.2
2018-May-17 19:00N 34°28' E 134°36'1019.5
2018-May-17 18:30N 34°25' E 134°25'18 0.6
2018-May-16 13:42N 34°27' E 134°03'718.6
2018-May-16 13:19N 34°25' E 134°12'619.1
2018-May-16 13:00N 34°24' E 134°19'918.8
2018-May-16 12:30N 34°28' E 134°30'1019.8
2018-May-16 12:00N 34°31' E 134°41'1122.9
2018-May-16 11:30N 34°36' E 134°54'1020.7
2018-May-16 11:01N 34°36' E 135°06'1120.4
2018-May-16 10:30N 34°37' E 135°19'510.1
2018-May-16 10:01N 34°38' E 135°25'0 0.0
2018-May-16 09:28N 34°38' E 135°25'0 0.0
2018-May-16 08:58N 34°38' E 135°25'0 0.0
2018-May-16 08:28N 34°38' E 135°25'0 0.0
2018-May-16 07:58N 34°38' E 135°25'0 0.0
2018-May-16 07:28N 34°38' E 135°25'0 0.0
2018-May-16 06:58N 34°38' E 135°25'0 0.0
2018-May-16 06:28N 34°38' E 135°25'0 0.0
2018-May-16 05:58N 34°38' E 135°25'0 0.0
2018-May-16 05:28N 34°38' E 135°25'0 0.0
2018-May-16 04:58N 34°38' E 135°25'0 0.0
2018-May-16 04:28N 34°38' E 135°25'0 0.0
2018-May-16 03:58N 34°38' E 135°25'0 0.0
2018-May-16 03:28N 34°38' E 135°25'0 0.0
2018-May-16 02:58N 34°38' E 135°25'0 0.0
2018-May-16 02:22N 34°38' E 135°25'0 0.0
2018-May-16 01:58N 34°38' E 135°25'0 0.0
2018-May-16 01:28N 34°38' E 135°25'0 0.0
2018-May-16 00:58N 34°38' E 135°25'0 0.0
2018-May-16 00:28N 34°38' E 135°25'0 0.0
2018-May-15 23:58N 34°38' E 135°25'0 0.0
2018-May-15 23:28N 34°38' E 135°25'0 0.0
2018-May-15 22:58N 34°38' E 135°25'0 0.0
2018-May-15 22:28N 34°38' E 135°25'0 0.0
2018-May-15 21:58N 34°38' E 135°25'0 0.0
2018-May-15 21:30N 34°38' E 135°25'4 8.1
2018-May-15 21:00N 34°36' E 135°20'1020.1
2018-May-15 20:30N 34°34' E 135°08'918.4
2018-May-15 20:00N 34°36' E 134°57'1019.5
2018-May-15 19:30N 34°32' E 134°47'918.9
2018-May-15 19:00N 34°28' E 134°36'1418.7
2018-May-15 18:17N 34°23' E 134°21'519.2
2018-May-15 18:00N 34°24' E 134°14'6417.3
2018-May-15 14:18N 34°08' E 132°60'717.5
2018-May-15 13:55N 34°08' E 132°51'921.8
2018-May-15 13:30N 34°00' E 132°45'1121.5
2018-May-15 13:00N 33°53' E 132°36'1020.7
2018-May-15 12:30N 33°46' E 132°27'1121.8
2018-May-15 12:00N 33°40' E 132°16'1121.8
2018-May-15 11:31N 33°34' E 132°05'1121.7
2018-May-15 10:59N 33°27' E 131°54'1020.5
2018-May-15 10:30N 33°22' E 131°44'12 0.9
2018-May-14 21:48N 33°18' E 131°30'816.2
2018-May-14 21:20N 33°20' E 131°39'718.1
2018-May-14 20:56N 33°23' E 131°47'818.5
2018-May-14 20:30N 33°28' E 131°54'1018.9
2018-May-14 19:59N 33°33' E 132°05'1019.4
2018-May-14 19:30N 33°38' E 132°14'1020.0
2018-May-14 19:00N 33°44' E 132°24'1020.2
2018-May-14 18:29N 33°51' E 132°33'1020.5
2018-May-14 18:00N 33°57' E 132°42'1221.4
2018-May-14 17:28N 34°07' E 132°51'1917.4
2018-May-14 16:23N 34°11' E 133°12'4116.5
2018-May-14 13:53N 34°25' E 133°60'615.5
2018-May-14 13:29N 34°26' E 134°07'  

Dump ship's entire track history